sensor_id;sensor_type;location;lat;lon;timestamp;pressure;altitude;pressure_sealevel;temperature;humidity
41706;BME280;27385;51.096;17.190;2022-07-09T00:00:17;101077.92;;;16.43;64.61
41706;BME280;27385;51.096;17.190;2022-07-09T00:03:05;101074.84;;;16.42;64.77
41706;BME280;27385;51.096;17.190;2022-07-09T00:05:34;101077.75;;;16.41;64.72
41706;BME280;27385;51.096;17.190;2022-07-09T00:08:04;101075.23;;;16.40;64.76
41706;BME280;27385;51.096;17.190;2022-07-09T00:10:33;101080.66;;;16.39;65.03
41706;BME280;27385;51.096;17.190;2022-07-09T00:13:02;101079.38;;;16.39;65.00
41706;BME280;27385;51.096;17.190;2022-07-09T00:15:31;101086.50;;;16.39;65.28
41706;BME280;27385;51.096;17.190;2022-07-09T00:17:59;101083.31;;;16.38;64.99
41706;BME280;27385;51.096;17.190;2022-07-09T00:20:29;101080.34;;;16.38;65.20
41706;BME280;27385;51.096;17.190;2022-07-09T00:22:57;101078.48;;;16.38;65.28
41706;BME280;27385;51.096;17.190;2022-07-09T00:25:27;101080.56;;;16.35;65.27
41706;BME280;27385;51.096;17.190;2022-07-09T00:27:56;101087.30;;;16.33;65.23
41706;BME280;27385;51.096;17.190;2022-07-09T00:30:24;101081.66;;;16.31;65.31
41706;BME280;27385;51.096;17.190;2022-07-09T00:32:53;101086.55;;;16.29;65.44
41706;BME280;27385;51.096;17.190;2022-07-09T00:35:22;101082.02;;;16.24;65.59
41706;BME280;27385;51.096;17.190;2022-07-09T00:37:51;101081.68;;;16.22;65.59
41706;BME280;27385;51.096;17.190;2022-07-09T00:40:20;101077.70;;;16.18;65.66
41706;BME280;27385;51.096;17.190;2022-07-09T00:42:50;101074.79;;;16.15;65.71
41706;BME280;27385;51.096;17.190;2022-07-09T00:45:19;101071.50;;;16.12;65.87
41706;BME280;27385;51.096;17.190;2022-07-09T00:47:48;101073.98;;;16.10;65.83
41706;BME280;27385;51.096;17.190;2022-07-09T00:50:16;101070.47;;;16.06;65.99
41706;BME280;27385;51.096;17.190;2022-07-09T00:52:46;101069.37;;;16.05;66.04
41706;BME280;27385;51.096;17.190;2022-07-09T00:55:14;101068.95;;;16.03;66.19
41706;BME280;27385;51.096;17.190;2022-07-09T00:57:43;101068.05;;;16.01;66.15
41706;BME280;27385;51.096;17.190;2022-07-09T01:00:14;101067.23;;;16.00;66.27
41706;BME280;27385;51.096;17.190;2022-07-09T01:02:43;101063.70;;;15.96;66.36
41706;BME280;27385;51.096;17.190;2022-07-09T01:05:13;101059.95;;;15.95;66.36
41706;BME280;27385;51.096;17.190;2022-07-09T01:07:42;101058.25;;;15.94;66.49
41706;BME280;27385;51.096;17.190;2022-07-09T01:10:11;101051.58;;;15.91;66.67
41706;BME280;27385;51.096;17.190;2022-07-09T01:12:40;101047.15;;;15.91;66.60
41706;BME280;27385;51.096;17.190;2022-07-09T01:15:10;101046.95;;;15.90;66.84
41706;BME280;27385;51.096;17.190;2022-07-09T01:17:39;101044.95;;;15.89;66.82
41706;BME280;27385;51.096;17.190;2022-07-09T01:20:10;101041.96;;;15.88;66.98
41706;BME280;27385;51.096;17.190;2022-07-09T01:22:39;101040.34;;;15.85;67.11
41706;BME280;27385;51.096;17.190;2022-07-09T01:25:09;101043.34;;;15.83;67.21
41706;BME280;27385;51.096;17.190;2022-07-09T01:27:39;101038.23;;;15.79;67.26
41706;BME280;27385;51.096;17.190;2022-07-09T01:30:22;101039.27;;;15.77;67.33
41706;BME280;27385;51.096;17.190;2022-07-09T01:32:51;101036.23;;;15.74;67.57
41706;BME280;27385;51.096;17.190;2022-07-09T01:35:20;101032.21;;;15.71;67.29
41706;BME280;27385;51.096;17.190;2022-07-09T01:37:49;101029.94;;;15.69;67.61
41706;BME280;27385;51.096;17.190;2022-07-09T01:40:19;101030.58;;;15.67;67.61
41706;BME280;27385;51.096;17.190;2022-07-09T01:42:48;101028.59;;;15.64;67.72
41706;BME280;27385;51.096;17.190;2022-07-09T01:45:17;101025.34;;;15.60;67.86
41706;BME280;27385;51.096;17.190;2022-07-09T01:47:46;101023.81;;;15.56;67.90
41706;BME280;27385;51.096;17.190;2022-07-09T01:50:15;101023.98;;;15.54;67.87
41706;BME280;27385;51.096;17.190;2022-07-09T01:52:44;101023.28;;;15.50;67.98
41706;BME280;27385;51.096;17.190;2022-07-09T01:55:12;101022.20;;;15.46;68.15
41706;BME280;27385;51.096;17.190;2022-07-09T01:57:41;101023.80;;;15.43;68.09
41706;BME280;27385;51.096;17.190;2022-07-09T02:00:11;101021.10;;;15.41;68.16
41706;BME280;27385;51.096;17.190;2022-07-09T02:02:40;101014.21;;;15.39;68.31
41706;BME280;27385;51.096;17.190;2022-07-09T02:05:10;101012.11;;;15.38;68.37
41706;BME280;27385;51.096;17.190;2022-07-09T02:07:39;101010.27;;;15.37;68.52
41706;BME280;27385;51.096;17.190;2022-07-09T02:10:09;101010.36;;;15.36;68.62
41706;BME280;27385;51.096;17.190;2022-07-09T02:12:38;101006.06;;;15.37;68.87
41706;BME280;27385;51.096;17.190;2022-07-09T02:15:09;101000.70;;;15.38;68.96
41706;BME280;27385;51.096;17.190;2022-07-09T02:17:38;101001.06;;;15.38;68.96
41706;BME280;27385;51.096;17.190;2022-07-09T02:20:09;100998.92;;;15.39;69.08
41706;BME280;27385;51.096;17.190;2022-07-09T02:22:39;100994.92;;;15.39;69.19
41706;BME280;27385;51.096;17.190;2022-07-09T02:25:10;100993.44;;;15.38;69.32
41706;BME280;27385;51.096;17.190;2022-07-09T02:27:37;100995.83;;;15.37;69.49
41706;BME280;27385;51.096;17.190;2022-07-09T02:30:09;100996.67;;;15.35;69.60
41706;BME280;27385;51.096;17.190;2022-07-09T02:32:36;100992.89;;;15.35;69.87
41706;BME280;27385;51.096;17.190;2022-07-09T02:35:08;100993.40;;;15.35;69.73
41706;BME280;27385;51.096;17.190;2022-07-09T02:37:36;100991.80;;;15.34;69.76
41706;BME280;27385;51.096;17.190;2022-07-09T02:40:08;100990.29;;;15.35;70.10
41706;BME280;27385;51.096;17.190;2022-07-09T02:42:37;100994.03;;;15.36;70.00
41706;BME280;27385;51.096;17.190;2022-07-09T02:45:09;100988.30;;;15.37;70.28
41706;BME280;27385;51.096;17.190;2022-07-09T02:47:38;100988.01;;;15.38;70.25
41706;BME280;27385;51.096;17.190;2022-07-09T02:50:09;100991.13;;;15.38;70.19
41706;BME280;27385;51.096;17.190;2022-07-09T02:52:37;100986.59;;;15.38;70.52
41706;BME280;27385;51.096;17.190;2022-07-09T02:55:07;100985.31;;;15.38;70.31
41706;BME280;27385;51.096;17.190;2022-07-09T02:57:35;100983.38;;;15.40;70.41
41706;BME280;27385;51.096;17.190;2022-07-09T03:00:06;100983.19;;;15.40;70.46
41706;BME280;27385;51.096;17.190;2022-07-09T03:02:35;100983.35;;;15.41;70.60
41706;BME280;27385;51.096;17.190;2022-07-09T03:05:06;100980.35;;;15.42;70.73
41706;BME280;27385;51.096;17.190;2022-07-09T03:07:36;100982.76;;;15.42;70.64
41706;BME280;27385;51.096;17.190;2022-07-09T03:10:06;100981.34;;;15.44;70.77
41706;BME280;27385;51.096;17.190;2022-07-09T03:12:34;100980.15;;;15.45;70.75
41706;BME280;27385;51.096;17.190;2022-07-09T03:15:04;100976.71;;;15.46;70.86
41706;BME280;27385;51.096;17.190;2022-07-09T03:17:33;100977.04;;;15.46;70.93
41706;BME280;27385;51.096;17.190;2022-07-09T03:20:02;100971.71;;;15.46;71.10
41706;BME280;27385;51.096;17.190;2022-07-09T03:22:31;100970.35;;;15.48;70.94
41706;BME280;27385;51.096;17.190;2022-07-09T03:24:59;100969.39;;;15.49;70.96
41706;BME280;27385;51.096;17.190;2022-07-09T03:27:28;100968.22;;;15.49;71.12
41706;BME280;27385;51.096;17.190;2022-07-09T03:29:57;100971.91;;;15.51;71.04
41706;BME280;27385;51.096;17.190;2022-07-09T03:32:27;100963.20;;;15.50;70.98
41706;BME280;27385;51.096;17.190;2022-07-09T03:34:56;100964.91;;;15.51;71.11
41706;BME280;27385;51.096;17.190;2022-07-09T03:37:28;100965.28;;;15.51;71.21
41706;BME280;27385;51.096;17.190;2022-07-09T03:39:57;100961.39;;;15.52;71.02
41706;BME280;27385;51.096;17.190;2022-07-09T03:42:26;100964.40;;;15.52;71.21
41706;BME280;27385;51.096;17.190;2022-07-09T03:44:54;100963.86;;;15.53;71.19
41706;BME280;27385;51.096;17.190;2022-07-09T03:47:23;100965.35;;;15.54;71.34
41706;BME280;27385;51.096;17.190;2022-07-09T03:49:52;100958.81;;;15.56;71.21
41706;BME280;27385;51.096;17.190;2022-07-09T03:52:22;100961.49;;;15.58;71.43
41706;BME280;27385;51.096;17.190;2022-07-09T03:54:50;100962.07;;;15.59;71.40
41706;BME280;27385;51.096;17.190;2022-07-09T03:57:19;100957.44;;;15.61;71.56
41706;BME280;27385;51.096;17.190;2022-07-09T03:59:48;100958.69;;;15.64;71.46
41706;BME280;27385;51.096;17.190;2022-07-09T04:02:17;100959.13;;;15.66;71.53
41706;BME280;27385;51.096;17.190;2022-07-09T04:04:45;100958.02;;;15.68;71.51
41706;BME280;27385;51.096;17.190;2022-07-09T04:07:15;100958.50;;;15.71;71.51
41706;BME280;27385;51.096;17.190;2022-07-09T04:09:43;100961.30;;;15.75;71.39
41706;BME280;27385;51.096;17.190;2022-07-09T04:12:12;100960.58;;;15.78;71.38
41706;BME280;27385;51.096;17.190;2022-07-09T04:14:41;100958.65;;;15.81;71.47
41706;BME280;27385;51.096;17.190;2022-07-09T04:17:10;100954.70;;;15.84;71.40
41706;BME280;27385;51.096;17.190;2022-07-09T04:19:40;100957.98;;;15.86;71.24
41706;BME280;27385;51.096;17.190;2022-07-09T04:22:08;100953.17;;;15.87;71.43
41706;BME280;27385;51.096;17.190;2022-07-09T04:24:37;100951.48;;;15.86;71.31
41706;BME280;27385;51.096;17.190;2022-07-09T04:27:06;100948.70;;;15.84;71.32
41706;BME280;27385;51.096;17.190;2022-07-09T04:29:35;100950.13;;;15.82;71.20
41706;BME280;27385;51.096;17.190;2022-07-09T04:32:05;100949.94;;;15.81;71.43
41706;BME280;27385;51.096;17.190;2022-07-09T04:34:33;100953.00;;;15.81;71.31
41706;BME280;27385;51.096;17.190;2022-07-09T04:37:03;100952.23;;;15.79;71.41
41706;BME280;27385;51.096;17.190;2022-07-09T04:39:32;100947.16;;;15.78;71.53
41706;BME280;27385;51.096;17.190;2022-07-09T04:42:01;100948.09;;;15.79;71.46
41706;BME280;27385;51.096;17.190;2022-07-09T04:44:30;100948.75;;;15.84;71.62
41706;BME280;27385;51.096;17.190;2022-07-09T04:47:00;100951.01;;;15.90;71.70
41706;BME280;27385;51.096;17.190;2022-07-09T04:49:28;100956.46;;;15.94;71.56
41706;BME280;27385;51.096;17.190;2022-07-09T04:51:58;100954.76;;;15.98;71.52
41706;BME280;27385;51.096;17.190;2022-07-09T04:54:26;100955.50;;;16.01;71.28
41706;BME280;27385;51.096;17.190;2022-07-09T04:56:55;100953.45;;;16.02;71.36
41706;BME280;27385;51.096;17.190;2022-07-09T04:59:24;100949.48;;;16.05;71.43
41706;BME280;27385;51.096;17.190;2022-07-09T05:01:53;100949.42;;;16.09;71.34
41706;BME280;27385;51.096;17.190;2022-07-09T05:04:22;100949.81;;;16.14;71.26
41706;BME280;27385;51.096;17.190;2022-07-09T05:06:51;100948.57;;;16.19;71.17
41706;BME280;27385;51.096;17.190;2022-07-09T05:09:20;100949.90;;;16.23;71.14
41706;BME280;27385;51.096;17.190;2022-07-09T05:11:49;100953.69;;;16.25;71.09
41706;BME280;27385;51.096;17.190;2022-07-09T05:14:18;100952.05;;;16.24;71.08
41706;BME280;27385;51.096;17.190;2022-07-09T05:16:47;100952.91;;;16.23;71.01
41706;BME280;27385;51.096;17.190;2022-07-09T05:19:16;100953.72;;;16.21;70.99
41706;BME280;27385;51.096;17.190;2022-07-09T05:21:45;100952.98;;;16.19;71.10
41706;BME280;27385;51.096;17.190;2022-07-09T05:24:14;100957.96;;;16.15;71.01
41706;BME280;27385;51.096;17.190;2022-07-09T05:26:43;100954.30;;;16.12;71.27
41706;BME280;27385;51.096;17.190;2022-07-09T05:29:12;100952.02;;;16.13;71.26
41706;BME280;27385;51.096;17.190;2022-07-09T05:31:40;100951.11;;;16.16;71.49
41706;BME280;27385;51.096;17.190;2022-07-09T05:34:09;100956.34;;;16.22;71.58
41706;BME280;27385;51.096;17.190;2022-07-09T05:36:38;100960.02;;;16.30;71.51
41706;BME280;27385;51.096;17.190;2022-07-09T05:39:07;100959.12;;;16.38;71.29
41706;BME280;27385;51.096;17.190;2022-07-09T05:41:36;100958.95;;;16.45;71.35
41706;BME280;27385;51.096;17.190;2022-07-09T05:44:05;100956.23;;;16.50;71.20
41706;BME280;27385;51.096;17.190;2022-07-09T05:46:34;100952.52;;;16.53;71.05
41706;BME280;27385;51.096;17.190;2022-07-09T05:49:03;100946.86;;;16.57;70.95
41706;BME280;27385;51.096;17.190;2022-07-09T05:51:32;100949.41;;;16.63;71.07
41706;BME280;27385;51.096;17.190;2022-07-09T05:54:01;100948.61;;;16.66;70.77
41706;BME280;27385;51.096;17.190;2022-07-09T05:56:29;100945.94;;;16.68;70.88
41706;BME280;27385;51.096;17.190;2022-07-09T05:58:58;100940.02;;;16.70;70.80
41706;BME280;27385;51.096;17.190;2022-07-09T06:01:27;100944.17;;;16.73;70.94
41706;BME280;27385;51.096;17.190;2022-07-09T06:03:56;100934.73;;;16.77;70.77
41706;BME280;27385;51.096;17.190;2022-07-09T06:06:25;100931.60;;;16.80;70.79
41706;BME280;27385;51.096;17.190;2022-07-09T06:08:54;100926.95;;;16.82;70.50
41706;BME280;27385;51.096;17.190;2022-07-09T06:11:25;100925.23;;;16.86;70.69
41706;BME280;27385;51.096;17.190;2022-07-09T06:13:54;100922.07;;;16.92;70.75
41706;BME280;27385;51.096;17.190;2022-07-09T06:16:23;100921.17;;;17.00;70.73
41706;BME280;27385;51.096;17.190;2022-07-09T06:18:52;100920.70;;;17.07;70.44
41706;BME280;27385;51.096;17.190;2022-07-09T06:21:22;100919.36;;;17.11;70.32
41706;BME280;27385;51.096;17.190;2022-07-09T06:23:51;100923.58;;;17.14;70.09
41706;BME280;27385;51.096;17.190;2022-07-09T06:26:23;100918.41;;;17.15;70.05
41706;BME280;27385;51.096;17.190;2022-07-09T06:28:52;100914.24;;;17.16;70.06
41706;BME280;27385;51.096;17.190;2022-07-09T06:31:21;100911.55;;;17.22;70.34
41706;BME280;27385;51.096;17.190;2022-07-09T06:33:50;100912.45;;;17.29;70.01
41706;BME280;27385;51.096;17.190;2022-07-09T06:36:20;100912.11;;;17.37;70.22
41706;BME280;27385;51.096;17.190;2022-07-09T06:38:50;100910.02;;;17.47;69.77
41706;BME280;27385;51.096;17.190;2022-07-09T06:41:37;100908.71;;;17.51;69.24
41706;BME280;27385;51.096;17.190;2022-07-09T06:44:06;100905.80;;;17.54;69.35
41706;BME280;27385;51.096;17.190;2022-07-09T06:46:35;100906.63;;;17.61;69.15
41706;BME280;27385;51.096;17.190;2022-07-09T06:49:05;100901.70;;;17.69;68.61
41706;BME280;27385;51.096;17.190;2022-07-09T06:51:35;100901.23;;;17.75;67.92
41706;BME280;27385;51.096;17.190;2022-07-09T06:54:05;100902.58;;;17.81;67.84
41706;BME280;27385;51.096;17.190;2022-07-09T06:56:34;100899.44;;;17.88;67.16
41706;BME280;27385;51.096;17.190;2022-07-09T06:59:03;100899.59;;;17.95;66.94
41706;BME280;27385;51.096;17.190;2022-07-09T07:01:33;100896.81;;;18.04;66.79
41706;BME280;27385;51.096;17.190;2022-07-09T07:04:01;100896.17;;;18.16;66.87
41706;BME280;27385;51.096;17.190;2022-07-09T07:06:30;100895.28;;;18.28;66.28
41706;BME280;27385;51.096;17.190;2022-07-09T07:09:00;100889.41;;;18.37;65.36
41706;BME280;27385;51.096;17.190;2022-07-09T07:11:30;100892.44;;;18.41;64.74
41706;BME280;27385;51.096;17.190;2022-07-09T07:13:59;100891.72;;;18.37;64.54
41706;BME280;27385;51.096;17.190;2022-07-09T07:16:28;100892.09;;;18.37;64.23
41706;BME280;27385;51.096;17.190;2022-07-09T07:18:57;100890.08;;;18.42;63.76
41706;BME280;27385;51.096;17.190;2022-07-09T07:21:26;100886.73;;;18.48;62.59
41706;BME280;27385;51.096;17.190;2022-07-09T07:23:55;100885.86;;;18.49;62.51
41706;BME280;27385;51.096;17.190;2022-07-09T07:26:24;100887.23;;;18.53;62.91
41706;BME280;27385;51.096;17.190;2022-07-09T07:28:53;100884.80;;;18.58;62.85
41706;BME280;27385;51.096;17.190;2022-07-09T07:31:22;100882.08;;;18.60;62.49
41706;BME280;27385;51.096;17.190;2022-07-09T07:33:52;100882.57;;;18.64;62.19
41706;BME280;27385;51.096;17.190;2022-07-09T07:36:22;100877.89;;;18.75;61.66
41706;BME280;27385;51.096;17.190;2022-07-09T07:38:51;100882.73;;;18.88;61.13
41706;BME280;27385;51.096;17.190;2022-07-09T07:41:20;100885.04;;;18.99;59.76
41706;BME280;27385;51.096;17.190;2022-07-09T07:43:49;100889.06;;;18.99;59.19
41706;BME280;27385;51.096;17.190;2022-07-09T07:46:19;100888.95;;;19.03;58.31
41706;BME280;27385;51.096;17.190;2022-07-09T07:48:48;100887.66;;;19.09;58.05
41706;BME280;27385;51.096;17.190;2022-07-09T07:51:17;100888.82;;;19.16;58.10
41706;BME280;27385;51.096;17.190;2022-07-09T07:53:46;100887.69;;;19.23;57.11
41706;BME280;27385;51.096;17.190;2022-07-09T07:56:16;100888.78;;;19.28;55.84
41706;BME280;27385;51.096;17.190;2022-07-09T07:58:45;100886.56;;;19.29;56.01
41706;BME280;27385;51.096;17.190;2022-07-09T08:01:15;100883.25;;;19.24;56.52
41706;BME280;27385;51.096;17.190;2022-07-09T08:03:46;100877.66;;;19.29;57.39
41706;BME280;27385;51.096;17.190;2022-07-09T08:06:13;100874.45;;;19.36;57.29
41706;BME280;27385;51.096;17.190;2022-07-09T08:08:43;100882.64;;;19.36;56.16
41706;BME280;27385;51.096;17.190;2022-07-09T08:11:12;100889.80;;;19.31;55.96
41706;BME280;27385;51.096;17.190;2022-07-09T08:13:42;100887.44;;;19.30;55.53
41706;BME280;27385;51.096;17.190;2022-07-09T08:16:12;100890.73;;;19.35;55.37
41706;BME280;27385;51.096;17.190;2022-07-09T08:18:40;100889.48;;;19.37;54.60
41706;BME280;27385;51.096;17.190;2022-07-09T08:21:09;100891.89;;;19.39;54.49
41706;BME280;27385;51.096;17.190;2022-07-09T08:23:38;100881.45;;;19.44;54.17
41706;BME280;27385;51.096;17.190;2022-07-09T08:26:20;100890.64;;;19.48;52.87
41706;BME280;27385;51.096;17.190;2022-07-09T08:28:49;100884.25;;;19.49;53.26
41706;BME280;27385;51.096;17.190;2022-07-09T08:31:19;100883.05;;;19.52;52.87
41706;BME280;27385;51.096;17.190;2022-07-09T08:33:49;100884.20;;;19.56;51.55
41706;BME280;27385;51.096;17.190;2022-07-09T08:36:18;100877.95;;;19.51;51.55
41706;BME280;27385;51.096;17.190;2022-07-09T08:38:47;100878.50;;;19.47;50.93
41706;BME280;27385;51.096;17.190;2022-07-09T08:41:18;100870.86;;;19.43;52.40
41706;BME280;27385;51.096;17.190;2022-07-09T08:43:52;100875.38;;;19.53;52.63
41706;BME280;27385;51.096;17.190;2022-07-09T08:46:21;100869.06;;;19.62;51.85
41706;BME280;27385;51.096;17.190;2022-07-09T08:48:51;100865.21;;;19.67;52.23
41706;BME280;27385;51.096;17.190;2022-07-09T08:51:22;100864.96;;;19.72;52.26
41706;BME280;27385;51.096;17.190;2022-07-09T08:53:51;100870.46;;;19.79;51.25
41706;BME280;27385;51.096;17.190;2022-07-09T08:56:21;100867.42;;;19.80;50.96
41706;BME280;27385;51.096;17.190;2022-07-09T08:58:50;100867.10;;;19.82;51.40
41706;BME280;27385;51.096;17.190;2022-07-09T09:01:19;100867.70;;;19.89;51.35
41706;BME280;27385;51.096;17.190;2022-07-09T09:03:49;100870.42;;;19.94;50.70
41706;BME280;27385;51.096;17.190;2022-07-09T09:06:22;100862.86;;;19.95;50.05
41706;BME280;27385;51.096;17.190;2022-07-09T09:08:55;100856.89;;;19.94;50.05
41706;BME280;27385;51.096;17.190;2022-07-09T09:11:25;100855.36;;;19.91;50.88
41706;BME280;27385;51.096;17.190;2022-07-09T09:13:54;100848.59;;;19.99;51.20
41706;BME280;27385;51.096;17.190;2022-07-09T09:16:23;100848.17;;;20.10;51.12
41706;BME280;27385;51.096;17.190;2022-07-09T09:18:52;100850.85;;;20.23;48.76
41706;BME280;27385;51.096;17.190;2022-07-09T09:21:23;100849.69;;;20.31;48.14
41706;BME280;27385;51.096;17.190;2022-07-09T09:23:54;100846.17;;;20.31;47.80
41706;BME280;27385;51.096;17.190;2022-07-09T09:26:22;100837.25;;;20.32;48.30
41706;BME280;27385;51.096;17.190;2022-07-09T09:28:52;100840.17;;;20.37;48.14
41706;BME280;27385;51.096;17.190;2022-07-09T09:31:26;100837.25;;;20.46;47.66
41706;BME280;27385;51.096;17.190;2022-07-09T09:33:56;100841.25;;;20.47;47.71
41706;BME280;27385;51.096;17.190;2022-07-09T09:36:33;100839.40;;;20.47;47.37
41706;BME280;27385;51.096;17.190;2022-07-09T09:39:12;100834.21;;;20.41;48.09
41706;BME280;27385;51.096;17.190;2022-07-09T09:41:42;100821.14;;;20.43;47.79
41706;BME280;27385;51.096;17.190;2022-07-09T09:44:13;100824.14;;;20.46;46.79
41706;BME280;27385;51.096;17.190;2022-07-09T09:46:43;100828.69;;;20.45;46.16
41706;BME280;27385;51.096;17.190;2022-07-09T09:49:13;100822.58;;;20.38;46.64
41706;BME280;27385;51.096;17.190;2022-07-09T09:51:49;100817.92;;;20.41;46.75
41706;BME280;27385;51.096;17.190;2022-07-09T09:54:19;100822.59;;;20.42;44.97
41706;BME280;27385;51.096;17.190;2022-07-09T09:56:49;100816.95;;;20.35;44.92
41706;BME280;27385;51.096;17.190;2022-07-09T09:59:18;100818.13;;;20.35;45.50
41706;BME280;27385;51.096;17.190;2022-07-09T10:01:47;100816.20;;;20.41;45.60
41706;BME280;27385;51.096;17.190;2022-07-09T10:04:16;100813.16;;;20.50;46.05
41706;BME280;27385;51.096;17.190;2022-07-09T10:06:46;100816.41;;;20.62;45.81
41706;BME280;27385;51.096;17.190;2022-07-09T10:09:15;100812.05;;;20.67;45.50
41706;BME280;27385;51.096;17.190;2022-07-09T10:11:48;100807.60;;;20.69;45.64
41706;BME280;27385;51.096;17.190;2022-07-09T10:14:28;100804.41;;;20.80;45.15
41706;BME280;27385;51.096;17.190;2022-07-09T10:17:10;100803.89;;;20.83;44.33
41706;BME280;27385;51.096;17.190;2022-07-09T10:19:49;100794.60;;;20.81;43.84
41706;BME280;27385;51.096;17.190;2022-07-09T10:22:19;100794.09;;;20.80;43.88
41706;BME280;27385;51.096;17.190;2022-07-09T10:24:51;100789.29;;;20.76;44.25
41706;BME280;27385;51.096;17.190;2022-07-09T10:27:21;100781.13;;;20.73;44.18
41706;BME280;27385;51.096;17.190;2022-07-09T10:29:54;100783.42;;;20.75;43.34
41706;BME280;27385;51.096;17.190;2022-07-09T10:32:27;100780.63;;;20.76;43.53
41706;BME280;27385;51.096;17.190;2022-07-09T10:35:00;100774.47;;;20.81;44.42
41706;BME280;27385;51.096;17.190;2022-07-09T10:37:34;100764.02;;;20.90;44.33
41706;BME280;27385;51.096;17.190;2022-07-09T10:40:10;100760.73;;;20.96;44.06
41706;BME280;27385;51.096;17.190;2022-07-09T10:42:40;100765.78;;;21.06;42.97
41706;BME280;27385;51.096;17.190;2022-07-09T10:45:23;100758.08;;;21.09;42.65
41706;BME280;27385;51.096;17.190;2022-07-09T10:47:54;100754.48;;;21.15;42.64
41706;BME280;27385;51.096;17.190;2022-07-09T10:50:25;100755.02;;;21.20;43.43
41706;BME280;27385;51.096;17.190;2022-07-09T10:52:54;100761.63;;;21.26;43.61
41706;BME280;27385;51.096;17.190;2022-07-09T10:55:25;100759.59;;;21.28;43.81
41706;BME280;27385;51.096;17.190;2022-07-09T10:57:55;100757.80;;;21.32;44.22
41706;BME280;27385;51.096;17.190;2022-07-09T11:00:25;100750.00;;;21.45;44.55
41706;BME280;27385;51.096;17.190;2022-07-09T11:02:56;100753.69;;;21.52;44.08
41706;BME280;27385;51.096;17.190;2022-07-09T11:05:26;100756.05;;;21.62;44.19
41706;BME280;27385;51.096;17.190;2022-07-09T11:08:00;100751.82;;;21.73;42.39
41706;BME280;27385;51.096;17.190;2022-07-09T11:10:30;100750.09;;;21.80;42.04
41706;BME280;27385;51.096;17.190;2022-07-09T11:13:00;100755.41;;;21.90;42.63
41706;BME280;27385;51.096;17.190;2022-07-09T11:15:30;100748.41;;;21.93;43.66
41706;BME280;27385;51.096;17.190;2022-07-09T11:18:02;100749.48;;;21.97;43.61
41706;BME280;27385;51.096;17.190;2022-07-09T11:20:36;100751.67;;;21.93;43.51
41706;BME280;27385;51.096;17.190;2022-07-09T11:23:07;100750.89;;;21.91;42.99
41706;BME280;27385;51.096;17.190;2022-07-09T11:25:35;100748.71;;;21.91;42.73
41706;BME280;27385;51.096;17.190;2022-07-09T11:28:05;100755.59;;;21.94;42.74
41706;BME280;27385;51.096;17.190;2022-07-09T11:30:34;100759.17;;;21.96;42.26
41706;BME280;27385;51.096;17.190;2022-07-09T11:33:05;100759.13;;;21.98;42.10
41706;BME280;27385;51.096;17.190;2022-07-09T11:35:35;100753.88;;;22.02;41.29
41706;BME280;27385;51.096;17.190;2022-07-09T11:38:05;100759.72;;;22.07;41.91
41706;BME280;27385;51.096;17.190;2022-07-09T11:40:35;100757.09;;;22.07;41.70
41706;BME280;27385;51.096;17.190;2022-07-09T11:43:13;100751.19;;;22.04;40.93
41706;BME280;27385;51.096;17.190;2022-07-09T11:45:52;100752.57;;;22.05;39.16
41706;BME280;27385;51.096;17.190;2022-07-09T11:48:21;100739.82;;;22.02;39.74
41706;BME280;27385;51.096;17.190;2022-07-09T11:50:51;100747.13;;;22.09;40.09
41706;BME280;27385;51.096;17.190;2022-07-09T11:53:24;100747.42;;;22.22;40.60
41706;BME280;27385;51.096;17.190;2022-07-09T11:56:01;100739.13;;;22.26;40.89
41706;BME280;27385;51.096;17.190;2022-07-09T11:58:31;100737.59;;;22.27;41.05
41706;BME280;27385;51.096;17.190;2022-07-09T12:01:01;100736.31;;;22.29;41.26
41706;BME280;27385;51.096;17.190;2022-07-09T12:03:30;100733.33;;;22.38;41.64
41706;BME280;27385;51.096;17.190;2022-07-09T12:05:59;100733.36;;;22.41;41.27
41706;BME280;27385;51.096;17.190;2022-07-09T12:08:31;100732.76;;;22.41;42.04
41706;BME280;27385;51.096;17.190;2022-07-09T12:11:00;100731.63;;;22.50;42.03
41706;BME280;27385;51.096;17.190;2022-07-09T12:13:28;100734.98;;;22.58;42.07
41706;BME280;27385;51.096;17.190;2022-07-09T12:15:57;100729.73;;;22.62;42.05
41706;BME280;27385;51.096;17.190;2022-07-09T12:18:26;100731.80;;;22.66;41.62
41706;BME280;27385;51.096;17.190;2022-07-09T12:20:55;100729.21;;;22.59;41.24
41706;BME280;27385;51.096;17.190;2022-07-09T12:23:25;100716.67;;;22.55;41.44
41706;BME280;27385;51.096;17.190;2022-07-09T12:25:55;100729.23;;;22.57;41.27
41706;BME280;27385;51.096;17.190;2022-07-09T12:28:23;100729.37;;;22.49;40.35
41706;BME280;27385;51.096;17.190;2022-07-09T12:30:52;100723.50;;;22.38;40.89
41706;BME280;27385;51.096;17.190;2022-07-09T12:33:21;100729.63;;;22.30;39.63
41706;BME280;27385;51.096;17.190;2022-07-09T12:35:51;100729.96;;;22.21;39.49
41706;BME280;27385;51.096;17.190;2022-07-09T12:38:20;100732.98;;;22.12;39.23
41706;BME280;27385;51.096;17.190;2022-07-09T12:40:49;100727.20;;;22.05;39.81
41706;BME280;27385;51.096;17.190;2022-07-09T12:43:17;100723.03;;;22.02;40.35
41706;BME280;27385;51.096;17.190;2022-07-09T12:45:47;100717.27;;;22.08;40.52
41706;BME280;27385;51.096;17.190;2022-07-09T12:48:16;100710.88;;;22.12;39.87
41706;BME280;27385;51.096;17.190;2022-07-09T12:50:45;100708.63;;;22.05;39.51
41706;BME280;27385;51.096;17.190;2022-07-09T12:53:16;100713.69;;;21.98;39.85